Time;durP1;ratioP1;P1;durP2;ratioP2;P2;SDS_P1;SDS_P2;PMS_P1;PMS_P2;Temp;Humidity;BMP_temperature;BMP_pressure;BME280_temperature;BME280_humidity;BME280_pressure;Samples;Min_cycle;Max_cycle;Signal;HPM_P1;HPM_P2
2021/11/22 00:03:12;892549.00;2.98;1543.04;12384.00;0.04;22.08;;;;;9.30;2.10;;;;;;2282957;61;1883;-88
2021/11/22 00:10:39;1140344.00;3.80;1982.73;0.00;0.00;0.62;;;;;9.00;1.40;;;;;;2514771;55;2013;31
2021/11/22 02:59:06;426819.00;1.42;735.92;0.00;0.00;0.62;;;;;7.60;8.40;;;;;;2278478;61;1210;-88
2021/11/22 03:01:34;125884.00;0.42;218.23;0.00;0.00;0.62;;;;;7.60;6.80;;;;;;2276172;61;2006;-88
2021/11/22 03:04:01;91068.00;0.30;158.15;0.00;0.00;0.62;;;;;7.30;7.60;;;;;;2276597;61;1448;-87
2021/11/22 03:06:28;142362.00;0.47;246.64;0.00;0.00;0.62;;;;;7.50;8.30;;;;;;2276622;61;945;-88
2021/11/22 03:08:55;110182.00;0.37;191.14;0.00;0.00;0.62;;;;;7.60;7.60;;;;;;2272844;61;946;-88
2021/11/22 03:11:22;100050.00;0.33;173.66;0.00;0.00;0.62;;;;;7.40;7.60;;;;;;2272840;61;963;-88
2021/11/22 03:13:49;216180.00;0.72;373.77;58067.00;0.19;101.14;;;;;7.30;8.00;;;;;;2276507;61;1296;-87
2021/11/22 03:16:19;49603.00;0.17;86.50;0.00;0.00;0.62;;;;;7.00;8.60;;;;;;2276577;61;1028;-87
2021/11/22 03:18:46;31386.00;0.10;54.98;0.00;0.00;0.62;;;;;7.10;8.90;;;;;;2276629;61;933;-87
2021/11/22 03:21:13;72997.00;0.24;126.94;0.00;0.00;0.62;;;;;7.20;8.50;;;;;;2276599;61;1147;-87
2021/11/22 03:23:42;172258.00;0.57;298.16;0.00;0.00;0.62;;;;;7.30;8.00;;;;;;2276056;61;1932;-88
2021/11/22 03:26:09;63890.00;0.21;111.20;0.00;0.00;0.62;;;;;7.70;7.10;;;;;;2276494;61;1023;-88
2021/11/22 03:28:36;160251.00;0.53;277.47;0.00;0.00;0.62;;;;;7.70;6.20;;;;;;2276066;61;1058;-88
2021/11/22 03:31:04;62769.00;0.21;109.26;0.00;0.00;0.62;;;;;7.60;7.20;;;;;;2271973;61;943;-88
2021/11/22 03:33:33;55140.00;0.18;96.07;0.00;0.00;0.62;;;;;7.60;7.00;;;;;;2271989;61;1406;-87
2021/11/22 03:36:00;150329.00;0.50;260.37;0.00;0.00;0.62;;;;;7.70;6.60;;;;;;2265302;61;1014;-87
2021/11/22 03:38:29;194794.00;0.65;336.96;0.00;0.00;0.62;;;;;7.80;6.70;;;;;;2265247;61;985;-88
2021/11/22 03:40:57;168554.00;0.56;291.78;0.00;0.00;0.62;;;;;7.70;6.70;;;;;;2271805;61;1113;-89
2021/11/22 03:43:30;89022.00;0.30;154.62;0.00;0.00;0.62;;;;;7.60;6.80;;;;;;2271923;61;1919;-87
2021/11/22 03:45:57;63992.00;0.21;111.38;0.00;0.00;0.62;;;;;7.60;6.70;;;;;;2263824;61;959;-88
2021/11/22 03:48:24;28151.00;0.09;49.38;0.00;0.00;0.62;;;;;7.70;6.60;;;;;;2261344;61;938;-88
2021/11/22 03:50:53;86483.00;0.29;150.23;0.00;0.00;0.62;;;;;7.70;6.30;;;;;;2261235;61;974;-88
2021/11/22 03:53:20;102151.00;0.34;177.28;0.00;0.00;0.62;;;;;7.40;8.20;;;;;;2261141;61;1429;-88
2021/11/22 03:55:46;198648.00;0.66;343.60;0.00;0.00;0.62;;;;;7.50;7.20;;;;;;2257950;61;1086;-88
2021/11/22 03:58:13;24130.00;0.08;42.42;0.00;0.00;0.62;;;;;7.60;7.00;;;;;;2267828;61;1055;-89
2021/11/22 04:00:40;186876.00;0.62;323.33;0.00;0.00;0.62;;;;;7.60;6.90;;;;;;2261143;61;1152;-91
2021/11/22 04:03:07;174456.00;0.58;301.94;0.00;0.00;0.62;;;;;7.90;6.80;;;;;;2268249;61;1994;-90
2021/11/22 04:05:34;243632.00;0.81;421.00;0.00;0.00;0.62;;;;;8.20;6.40;;;;;;2272424;61;1004;-89
2021/11/22 04:08:03;159656.00;0.53;276.45;0.00;0.00;0.62;;;;;8.10;5.70;;;;;;2276429;61;935;-89
2021/11/22 04:10:30;466249.00;1.55;803.74;41831.00;0.14;73.06;;;;;8.10;5.20;;;;;;2275922;61;985;-90
2021/11/22 04:12:57;84306.00;0.28;146.47;0.00;0.00;0.62;;;;;7.90;5.80;;;;;;2275898;61;1410;-88
2021/11/22 04:15:23;126971.00;0.42;220.11;0.00;0.00;0.62;;;;;7.80;6.20;;;;;;2276377;61;1025;-89
2021/11/22 04:17:50;164384.00;0.55;284.59;0.00;0.00;0.62;;;;;7.50;7.20;;;;;;2271813;61;1026;-89
2021/11/22 04:20:17;127049.00;0.42;220.24;0.00;0.00;0.62;;;;;7.70;7.40;;;;;;2265143;61;966;-90
2021/11/22 04:22:44;102453.00;0.34;177.81;0.00;0.00;0.62;;;;;8.00;5.80;;;;;;2267699;61;1995;-89
2021/11/22 04:25:12;231616.00;0.77;400.33;0.00;0.00;0.62;;;;;8.00;6.60;;;;;;2257807;61;1367;-89
2021/11/22 04:27:40;153025.00;0.51;265.02;0.00;0.00;0.62;;;;;8.00;7.70;;;;;;2267817;61;1018;-89
2021/11/22 04:30:10;56953.00;0.19;99.21;0.00;0.00;0.62;;;;;8.00;7.30;;;;;;2267707;61;1041;-89
2021/11/22 04:32:37;164119.00;0.55;284.14;0.00;0.00;0.62;;;;;7.80;6.10;;;;;;2267785;61;940;-89
2021/11/22 04:35:06;99575.00;0.33;172.84;0.00;0.00;0.62;;;;;7.60;6.90;;;;;;2268899;61;1354;-89
2021/11/22 04:37:34;96316.00;0.32;167.21;0.00;0.00;0.62;;;;;7.50;8.20;;;;;;2265836;61;956;-89
2021/11/22 04:40:03;68595.00;0.23;119.33;0.00;0.00;0.62;;;;;7.50;8.40;;;;;;2265898;61;991;-90
2021/11/22 04:42:34;119089.00;0.40;206.51;0.00;0.00;0.62;;;;;7.70;7.90;;;;;;2276276;61;1907;-89
2021/11/22 04:45:01;61061.00;0.20;106.31;0.00;0.00;0.62;;;;;7.30;7.70;;;;;;2272510;61;1404;-88
2021/11/22 04:47:28;213912.00;0.71;369.87;0.00;0.00;0.62;;;;;7.20;9.00;;;;;;2276341;61;1035;-89
2021/11/22 04:49:55;94451.00;0.31;163.99;0.00;0.00;0.62;;;;;7.10;9.00;;;;;;2276334;61;1093;-89
2021/11/22 04:52:23;204544.00;0.68;353.75;0.00;0.00;0.62;;;;;7.20;9.20;;;;;;2272057;61;1023;-91
2021/11/22 04:54:51;75736.00;0.25;131.67;0.00;0.00;0.62;;;;;7.20;9.20;;;;;;2264290;61;1439;-89
2021/11/22 04:57:17;81766.00;0.27;142.09;0.00;0.00;0.62;;;;;7.20;9.00;;;;;;2256337;61;1068;-90
2021/11/22 04:59:46;69109.00;0.23;120.22;0.00;0.00;0.62;;;;;7.50;8.90;;;;;;2252963;61;1002;-89
2021/11/22 05:02:13;81328.00;0.27;141.33;0.00;0.00;0.62;;;;;7.50;7.90;;;;;;2249749;61;2002;-89
2021/11/22 05:04:41;63560.00;0.21;110.63;0.00;0.00;0.62;;;;;7.30;8.60;;;;;;2252998;61;1484;-88
2021/11/22 05:07:08;209675.00;0.70;362.58;0.00;0.00;0.62;;;;;7.50;9.10;;;;;;2252271;61;999;-89
2021/11/22 05:09:35;71579.00;0.24;124.49;0.00;0.00;0.62;;;;;7.60;8.50;;;;;;2245308;61;1022;-89
2021/11/22 05:12:02;191511.00;0.64;331.31;0.00;0.00;0.62;;;;;7.70;7.80;;;;;;2252817;61;975;-89
2021/11/22 05:14:29;127052.00;0.42;220.25;32562.00;0.11;57.02;;;;;7.60;7.50;;;;;;2253094;61;1283;-89
2021/11/22 05:16:58;178448.00;0.59;308.82;0.00;0.00;0.62;;;;;7.50;8.10;;;;;;2260208;61;1076;-89
2021/11/22 05:19:30;79099.00;0.26;137.48;0.00;0.00;0.62;;;;;7.70;9.80;;;;;;2260205;61;1063;-89
2021/11/22 05:21:57;108936.00;0.36;188.99;0.00;0.00;0.62;;;;;7.70;7.80;;;;;;2260265;61;939;-90
2021/11/22 05:24:25;46050.00;0.15;80.35;0.00;0.00;0.62;;;;;7.80;7.70;;;;;;2260690;61;1941;-89
2021/11/22 05:26:52;110610.00;0.37;191.88;0.00;0.00;0.62;;;;;8.20;7.30;;;;;;2255523;61;1085;-90
2021/11/22 05:29:20;126905.00;0.42;219.99;0.00;0.00;0.62;;;;;8.40;5.80;;;;;;2264104;61;944;-90
2021/11/22 05:31:48;152213.00;0.51;263.62;0.00;0.00;0.62;;;;;8.30;5.50;;;;;;2260730;61;1150;-89
2021/11/22 05:34:17;87775.00;0.29;152.47;0.00;0.00;0.62;;;;;8.20;5.80;;;;;;2264149;61;1308;-90
2021/11/22 05:36:44;7361.00;0.02;13.38;0.00;0.00;0.62;;;;;8.00;6.00;;;;;;2256227;61;925;-89
2021/11/22 05:39:12;136177.00;0.45;235.98;0.00;0.00;0.62;;;;;7.90;6.60;;;;;;2248237;61;958;-90
2021/11/22 05:41:39;360086.00;1.20;621.20;46156.00;0.15;80.54;;;;;8.00;6.50;;;;;;2248317;61;1733;-89
2021/11/22 05:44:06;155415.00;0.52;269.14;0.00;0.00;0.62;;;;;8.40;6.50;;;;;;2244878;61;1928;-91
2021/11/22 05:46:33;239865.00;0.80;414.52;0.00;0.00;0.62;;;;;8.60;5.00;;;;;;2249458;61;931;-90
2021/11/22 05:49:00;49208.00;0.16;85.82;0.00;0.00;0.62;;;;;8.80;4.40;;;;;;2254008;61;1027;-90
2021/11/22 05:51:28;132533.00;0.44;229.70;0.00;0.00;0.62;;;;;8.90;4.10;;;;;;2264272;61;939;-90
2021/11/22 05:53:57;132514.00;0.44;229.66;0.00;0.00;0.62;;;;;8.90;4.40;;;;;;2264706;61;1411;-90
2021/11/22 05:56:24;134812.00;0.45;233.63;0.00;0.00;0.62;;;;;8.50;4.30;;;;;;2269474;61;1069;-89
2021/11/22 05:58:51;80394.00;0.27;139.72;0.00;0.00;0.62;;;;;8.10;5.20;;;;;;2269767;61;973;-91
2021/11/22 06:01:20;99392.00;0.33;172.52;0.00;0.00;0.62;;;;;7.70;6.70;;;;;;2276397;61;927;-89
2021/11/22 06:03:48;42960.00;0.14;75.01;0.00;0.00;0.62;;;;;7.70;6.90;;;;;;2276635;61;1986;-89
2021/11/22 06:06:15;134482.00;0.45;233.06;0.00;0.00;0.62;;;;;7.40;9.50;;;;;;2273108;61;1010;-89
2021/11/22 06:08:43;319139.00;1.06;550.82;0.00;0.00;0.62;;;;;7.50;8.80;;;;;;2276793;61;1022;-90
2021/11/22 06:11:10;274119.00;0.91;473.43;20031.00;0.07;35.32;;;;;7.30;9.20;;;;;;2273050;61;994;-89
2021/11/22 06:13:37;101033.00;0.34;175.35;0.00;0.00;0.62;;;;;7.20;9.00;;;;;;2272099;61;1393;-86
2021/11/22 06:16:04;113617.00;0.38;197.07;0.00;0.00;0.62;;;;;7.20;9.00;;;;;;2272249;61;1028;-87
2021/11/22 06:18:31;140725.00;0.47;243.82;0.00;0.00;0.62;;;;;7.30;12.30;;;;;;2262212;61;1075;-89
2021/11/22 06:20:58;126245.00;0.42;218.85;0.00;0.00;0.62;;;;;7.90;10.80;;;;;;2268102;61;977;-91
2021/11/22 06:23:25;336069.00;1.12;579.92;0.00;0.00;0.62;;;;;7.80;6.80;;;;;;2263920;61;2006;-90
2021/11/22 06:25:53;115211.00;0.38;199.82;0.00;0.00;0.62;;;;;8.10;7.40;;;;;;2264169;61;1031;-90
2021/11/22 06:28:20;150499.00;0.50;260.67;16043.00;0.05;28.42;;;;;7.80;7.50;;;;;;2260685;61;970;-91
2021/11/22 06:30:47;350846.00;1.17;605.32;43177.00;0.14;75.38;;;;;7.80;7.40;;;;;;2264543;61;981;-89
2021/11/22 06:33:14;16753.00;0.06;29.65;0.00;0.00;0.62;;;;;7.80;7.90;;;;;;2264000;61;1334;-89
2021/11/22 06:35:41;95908.00;0.32;166.51;0.00;0.00;0.62;;;;;8.00;7.30;;;;;;2260749;61;956;-91
2021/11/22 06:38:08;156553.00;0.52;271.10;0.00;0.00;0.62;;;;;8.10;7.30;;;;;;2264084;61;949;-89
2021/11/22 06:40:35;48826.00;0.16;85.16;0.00;0.00;0.62;;;;;8.10;6.90;;;;;;2257291;61;984;-91
2021/11/22 06:43:04;125709.00;0.42;217.93;0.00;0.00;0.62;;;;;8.10;7.40;;;;;;2268052;61;1993;-89
2021/11/22 06:45:31;38176.00;0.13;66.73;0.00;0.00;0.62;;;;;8.20;7.40;;;;;;2268142;61;934;-89
2021/11/22 06:47:59;160317.00;0.53;277.59;0.00;0.00;0.62;;;;;8.30;6.50;;;;;;2258131;61;1040;-91
2021/11/22 06:50:26;133049.00;0.44;230.59;0.00;0.00;0.62;;;;;8.20;6.10;;;;;;2259951;61;977;-91
2021/11/22 06:52:53;3947.00;0.01;7.46;0.00;0.00;0.62;;;;;8.30;6.10;;;;;;2251896;61;1429;-88
2021/11/22 06:55:20;169538.00;0.57;293.47;0.00;0.00;0.62;;;;;8.30;5.70;;;;;;2252034;61;1060;-90
2021/11/22 06:57:48;136827.00;0.46;237.10;0.00;0.00;0.62;;;;;8.20;5.90;;;;;;2252526;61;1028;-88
2021/11/22 07:00:20;489504.00;1.63;843.76;0.00;0.00;0.62;;;;;8.50;6.00;;;;;;2255220;61;1011;-89
2021/11/22 07:02:50;621225.00;2.07;1070.88;0.00;0.00;0.62;;;;;8.90;5.90;;;;;;2261843;61;1988;-91
2021/11/22 07:05:17;793936.00;2.65;1370.55;0.00;0.00;0.62;;;;;8.90;4.50;;;;;;2254205;61;1503;-89
2021/11/22 07:07:44;185505.00;0.62;320.97;26693.00;0.09;46.86;;;;;9.20;4.60;;;;;;2257322;61;1022;-88
2021/11/22 07:10:11;246926.00;0.82;426.66;49957.00;0.17;87.11;;;;;9.10;3.60;;;;;;2265208;61;1025;-89
2021/11/22 07:12:38;147964.00;0.49;256.30;0.00;0.00;0.62;;;;;8.70;4.50;;;;;;2272021;61;1024;-90
2021/11/22 07:15:07;172154.00;0.57;297.98;0.00;0.00;0.62;;;;;8.60;5.80;;;;;;2265118;61;1417;-90
2021/11/22 07:17:35;240848.00;0.80;416.21;75021.00;0.25;130.44;;;;;8.90;4.90;;;;;;2271948;61;1059;-89
2021/11/22 07:20:02;34518.00;0.12;60.40;0.00;0.00;0.62;;;;;9.20;4.40;;;;;;2265306;61;994;-89
2021/11/22 07:22:29;85007.00;0.28;147.69;0.00;0.00;0.62;;;;;9.00;3.70;;;;;;2265872;61;1060;-88
2021/11/22 07:24:56;176975.00;0.59;306.28;0.00;0.00;0.62;;;;;9.20;3.70;;;;;;2275886;61;1927;-89
2021/11/22 07:27:26;265200.00;0.88;458.09;59077.00;0.20;102.88;;;;;9.30;3.70;;;;;;2263808;61;1032;-89
2021/11/22 07:29:54;80193.00;0.27;139.37;0.00;0.00;0.62;;;;;9.30;3.60;;;;;;2263872;61;1052;-87
2021/11/22 07:32:21;276753.00;0.92;477.95;0.00;0.00;0.62;;;;;8.80;3.40;;;;;;2263828;61;992;-88
2021/11/22 07:34:50;67550.00;0.23;117.53;0.00;0.00;0.62;;;;;8.70;4.70;;;;;;2257144;61;1329;-90
2021/11/22 07:37:17;69389.00;0.23;120.70;0.00;0.00;0.62;;;;;8.90;4.10;;;;;;2263826;61;1179;-88
2021/11/22 07:39:44;0.00;0.00;0.62;0.00;0.00;0.62;;;;;9.40;4.10;;;;;;2255701;61;1007;-89
2021/11/22 07:42:11;48141.00;0.16;83.97;0.00;0.00;0.62;;;;;9.80;3.20;;;;;;2249710;61;961;-88
2021/11/22 07:44:39;166000.00;0.55;287.38;0.00;0.00;0.62;;;;;10.20;3.50;;;;;;2256925;61;1920;-89
2021/11/22 07:47:06;54198.00;0.18;94.45;0.00;0.00;0.62;;;;;10.40;2.20;;;;;;2263749;61;1047;-89
2021/11/22 07:49:33;71627.00;0.24;124.57;0.00;0.00;0.62;;;;;10.40;1.00;;;;;;2263698;61;968;-87
2021/11/22 07:52:02;19153.00;0.06;33.80;0.00;0.00;0.62;;;;;10.70;1.20;;;;;;2255578;61;978;-87
2021/11/22 07:54:29;77562.00;0.26;134.83;0.00;0.00;0.62;;;;;10.70;1.00;;;;;;2243667;61;1244;-89
2021/11/22 07:56:56;34205.00;0.11;59.86;0.00;0.00;0.62;;;;;10.60;1.00;;;;;;2240657;61;915;-88
2021/11/22 07:59:23;30887.00;0.10;54.12;0.00;0.00;0.62;;;;;10.80;1.80;;;;;;2247745;61;1026;-88
2021/11/22 08:01:50;224109.00;0.75;387.41;56045.00;0.19;97.64;;;;;10.60;1.00;;;;;;2248192;61;938;-87
2021/11/22 08:04:17;14998.00;0.05;26.61;0.00;0.00;0.62;;;;;10.60;1.00;;;;;;2248356;61;2011;-87
2021/11/22 08:06:48;87308.00;0.29;151.66;0.00;0.00;0.62;;;;;10.70;1.00;;;;;;2248399;61;1077;-87
2021/11/22 08:09:25;23594.00;0.08;41.49;0.00;0.00;0.62;;;;;10.70;1.00;;;;;;2248755;61;1069;-87
2021/11/22 08:12:25;59986.00;0.20;104.45;0.00;0.00;0.62;;;;;10.40;1.00;;;;;;2256379;61;1071;-86
2021/11/22 08:14:52;144174.00;0.48;249.77;0.00;0.00;0.62;;;;;10.40;1.00;;;;;;2265040;61;1354;-88
2021/11/22 08:17:18;51164.00;0.17;89.20;0.00;0.00;0.62;;;;;10.40;1.00;;;;;;2261860;61;987;-87
2021/11/22 08:19:45;128977.00;0.43;223.57;0.00;0.00;0.62;;;;;10.60;1.00;;;;;;2265147;61;1011;-88
2021/11/22 08:22:13;82321.00;0.27;143.05;0.00;0.00;0.62;;;;;10.70;1.00;;;;;;2265127;61;1019;-86
2021/11/22 08:24:41;72745.00;0.24;126.50;0.00;0.00;0.62;;;;;10.70;1.00;;;;;;2265017;61;1926;-86
2021/11/22 08:27:08;135053.00;0.45;234.04;0.00;0.00;0.62;;;;;10.70;1.00;;;;;;2273398;61;1647;-88
2021/11/22 08:29:35;14465.00;0.05;25.68;0.00;0.00;0.62;;;;;10.70;1.00;;;;;;2276270;61;1096;-86
2021/11/22 08:32:03;182474.00;0.61;315.75;0.00;0.00;0.62;;;;;10.50;1.00;;;;;;2276027;61;1022;-89
2021/11/22 08:34:29;28504.00;0.10;49.99;0.00;0.00;0.62;;;;;10.50;1.00;;;;;;2276084;61;1328;-88
2021/11/22 08:36:56;70640.00;0.24;122.87;0.00;0.00;0.62;;;;;10.90;1.10;;;;;;2271698;61;1017;-88
2021/11/22 08:39:23;79203.00;0.26;137.66;0.00;0.00;0.62;;;;;11.00;1.00;;;;;;2264965;61;1026;-88
2021/11/22 08:41:51;188877.00;0.63;326.78;0.00;0.00;0.62;;;;;10.90;1.00;;;;;;2264929;61;1039;-87
2021/11/22 08:44:18;108367.00;0.36;188.01;0.00;0.00;0.62;;;;;10.80;1.00;;;;;;2264832;61;1996;-86
2021/11/22 08:46:47;36970.00;0.12;64.65;0.00;0.00;0.62;;;;;10.70;1.00;;;;;;2271616;61;822;-88
2021/11/22 08:49:14;213054.00;0.71;368.39;0.00;0.00;0.62;;;;;10.60;1.00;;;;;;2271712;61;1041;-88
2021/11/22 08:51:42;194117.00;0.65;335.80;17638.00;0.06;31.18;;;;;10.40;1.00;;;;;;2263460;61;1014;-89
2021/11/22 08:54:09;3257.00;0.01;6.27;0.00;0.00;0.62;;;;;10.30;1.00;;;;;;2267755;61;1380;-88
2021/11/22 09:04:55;324933.00;1.08;560.78;85754.00;0.29;148.98;;;;;10.60;1.00;;;;;;2269638;61;2017;-87
2021/11/22 09:07:21;366968.00;1.22;633.03;84777.00;0.28;147.29;;;;;11.20;1.00;;;;;;2268045;61;735;-88
2021/11/22 09:09:48;520423.00;1.73;896.99;122699.00;0.41;212.74;;;;;11.00;1.00;;;;;;2268033;61;1045;-88
2021/11/22 09:12:15;422432.00;1.41;728.37;97477.00;0.32;169.22;;;;;11.00;1.00;;;;;;2259481;61;988;-87
2021/11/22 09:14:42;328759.00;1.10;567.35;101354.00;0.34;175.91;;;;;10.80;1.00;;;;;;2259506;61;1365;-87
2021/11/22 09:17:09;248840.00;0.83;429.96;85698.00;0.29;148.88;;;;;10.40;1.00;;;;;;2259527;61;949;-89
2021/11/22 09:19:36;257847.00;0.86;445.45;101302.00;0.34;175.82;;;;;9.80;1.90;;;;;;2259000;61;1676;-88
2021/11/22 09:22:10;436197.00;1.45;752.04;90953.00;0.30;157.95;;;;;9.00;3.40;;;;;;2259534;61;922;-88
2021/11/22 09:24:37;445917.00;1.49;768.76;122907.00;0.41;213.10;;;;;8.40;6.50;;;;;;2259444;61;1916;-90
2021/11/22 09:27:04;384379.00;1.28;662.95;98855.00;0.33;171.60;;;;;8.70;8.20;;;;;;2251352;61;976;-88
2021/11/22 09:29:31;308522.00;1.03;532.57;96142.00;0.32;166.91;;;;;9.40;6.70;;;;;;2253277;61;1033;-88
2021/11/22 09:31:58;310071.00;1.03;535.23;82230.00;0.27;142.89;;;;;10.00;6.20;;;;;;2253552;61;1022;-90
2021/11/22 09:34:25;314117.00;1.05;542.19;111698.00;0.37;193.76;;;;;9.90;3.20;;;;;;2253573;61;1448;-89
2021/11/22 09:36:53;469638.00;1.57;809.57;134505.00;0.45;233.10;;;;;9.60;4.10;;;;;;2263543;61;1036;-89
2021/11/22 09:39:22;297365.00;0.99;513.39;75942.00;0.25;132.03;;;;;9.20;5.30;;;;;;2263816;61;1016;-87
2021/11/22 09:41:50;409341.00;1.36;705.86;89122.00;0.30;154.79;;;;;9.60;5.50;;;;;;2256138;61;1004;-88
2021/11/22 09:44:20;478842.00;1.60;825.40;80448.00;0.27;139.81;;;;;9.90;4.00;;;;;;2257167;61;1920;-87
2021/11/22 10:37:23;718971.00;2.40;1240.15;0.00;0.00;0.62;;;;;8.40;11.70;;;;;;2510796;55;2092;31
2021/11/22 11:07:21;183004.00;0.61;316.66;0.00;0.00;0.62;;;;;8.10;15.20;;;;;;2287214;61;1007;-90
2021/11/22 11:12:19;227387.00;0.76;393.05;0.00;0.00;0.62;;;;;8.10;14.30;;;;;;2287016;61;1302;-89
2021/11/22 12:24:55;167530.00;0.56;290.01;17048.00;0.06;30.16;;;;;8.30;14.50;;;;;;2278247;61;1896;-86
2021/11/22 12:27:35;381274.00;1.27;657.62;74310.00;0.25;129.21;;;;;8.20;14.50;;;;;;2269405;61;1036;-87
2021/11/22 12:30:24;68057.00;0.23;118.40;0.00;0.00;0.62;;;;;8.30;13.80;;;;;;2276481;61;1005;-88
2021/11/22 12:32:50;21852.00;0.07;38.48;0.00;0.00;0.62;;;;;8.40;14.20;;;;;;2276452;61;964;-88
2021/11/22 12:35:17;209945.00;0.70;363.04;10703.00;0.04;19.17;;;;;8.40;13.10;;;;;;2276349;61;1450;-87
2021/11/22 12:37:44;136927.00;0.46;237.27;23321.00;0.08;41.02;;;;;8.10;13.50;;;;;;2276459;61;1016;-85
2021/11/22 12:40:16;212711.00;0.71;367.80;29911.00;0.10;52.43;;;;;8.10;14.70;;;;;;2267844;61;1006;-88
2021/11/22 12:42:47;177202.00;0.59;306.67;18060.00;0.06;31.91;;;;;8.50;13.10;;;;;;2267942;61;997;-88
2021/11/22 12:45:14;20823.00;0.07;36.70;0.00;0.00;0.62;;;;;8.30;12.10;;;;;;2267832;61;1911;-86
2021/11/22 12:47:41;199870.00;0.67;345.70;0.00;0.00;0.62;;;;;7.90;12.80;;;;;;2261164;61;1003;-87
2021/11/22 12:50:16;66940.00;0.22;116.47;0.00;0.00;0.62;;;;;7.70;13.90;;;;;;2267883;61;982;-85
2021/11/22 12:52:43;464666.00;1.55;801.01;0.00;0.00;0.62;;;;;7.70;15.20;;;;;;2267874;61;988;-86
2021/11/22 12:55:18;554164.00;1.85;955.14;1628.00;0.01;3.44;;;;;7.80;14.50;;;;;;2267892;61;1471;-87
2021/11/22 12:57:47;809727.00;2.70;1398.09;0.00;0.00;0.62;;;;;7.70;13.70;;;;;;2263898;61;989;-88
2021/11/22 13:00:34;555751.00;1.85;957.87;0.00;0.00;0.62;;;;;7.70;15.00;;;;;;2272655;61;946;-86
2021/11/22 13:03:08;862320.00;2.87;1490.04;25675.00;0.09;45.10;;;;;7.80;15.40;;;;;;2271848;61;1476;-86
2021/11/22 13:05:48;274919.00;0.92;474.80;2455.00;0.01;4.88;;;;;8.00;14.00;;;;;;2263753;61;2006;-86
2021/11/22 13:08:49;383174.00;1.28;660.88;0.00;0.00;0.62;;;;;8.20;12.70;;;;;;2263761;61;981;-86
2021/11/22 13:14:09;112220.00;0.37;194.66;29669.00;0.10;52.01;;;;;8.30;13.40;;;;;;2256329;61;1395;-86
2021/11/22 13:16:38;73644.00;0.25;128.06;0.00;0.00;0.62;;;;;8.50;12.40;;;;;;2256467;61;1113;-87
2021/11/22 13:19:07;562489.00;1.87;969.49;144147.00;0.48;249.72;;;;;8.30;10.70;;;;;;2256479;61;1342;-86
2021/11/22 13:21:37;529302.00;1.76;912.29;53959.00;0.18;94.03;;;;;8.10;11.10;;;;;;2253107;61;1066;-86
2021/11/22 13:24:07;590464.00;1.97;1017.76;58805.00;0.20;102.41;;;;;8.10;11.30;;;;;;2261809;61;1912;-86
2021/11/22 13:26:37;762517.00;2.54;1315.83;21718.00;0.07;38.25;;;;;7.90;12.40;;;;;;2264416;61;1191;-86
2021/11/22 13:29:07;672636.00;2.24;1159.82;0.00;0.00;0.62;;;;;7.90;12.80;;;;;;2264398;61;1536;-86
2021/11/22 13:31:39;782294.00;2.61;1350.26;144881.00;0.48;250.98;;;;;7.90;12.00;;;;;;2264432;61;1132;-86
2021/11/22 13:34:07;659383.00;2.20;1136.87;45875.00;0.15;80.05;;;;;7.80;12.20;;;;;;2264373;61;1482;-86
2021/11/22 13:36:37;908741.00;3.03;1571.48;101268.00;0.34;175.76;;;;;7.80;12.60;;;;;;2264415;61;1043;-86
2021/11/22 13:39:16;887717.00;2.96;1534.56;55951.00;0.19;97.48;;;;;7.90;11.80;;;;;;2264354;61;1130;-86
2021/11/22 13:41:55;665586.00;2.22;1147.61;15790.00;0.05;27.98;;;;;7.70;11.80;;;;;;2264258;61;1352;-86
2021/11/22 13:44:23;519716.00;1.73;895.78;12420.00;0.04;22.14;;;;;7.70;12.50;;;;;;2257559;61;2032;-86
2021/11/22 13:46:50;482085.00;1.61;830.99;52039.00;0.17;90.71;;;;;7.90;11.20;;;;;;2257615;61;1072;-86
2021/11/22 13:49:20;754108.00;2.51;1301.20;101486.00;0.34;176.14;;;;;7.90;11.40;;;;;;2263877;61;1280;-85
2021/11/22 13:51:47;806253.00;2.69;1392.03;120868.00;0.40;209.58;;;;;7.90;10.80;;;;;;2273930;61;1001;-86
2021/11/22 13:54:18;570798.00;1.90;983.82;20368.00;0.07;35.91;;;;;7.90;11.50;;;;;;2276843;61;1391;-86
2021/11/22 13:56:47;624984.00;2.08;1077.38;9664.00;0.03;17.37;;;;;8.00;10.50;;;;;;2276814;61;1104;-86
2021/11/22 13:59:25;536549.00;1.79;924.78;18959.00;0.06;33.47;;;;;8.00;11.80;;;;;;2276727;61;1011;-85
2021/11/22 14:01:53;8338.00;0.03;15.07;0.00;0.00;0.62;;;;;8.10;12.70;;;;;;2276782;61;1027;-86
2021/11/22 14:04:22;298073.00;0.99;514.61;0.00;0.00;0.62;;;;;8.20;12.00;;;;;;2276602;61;1926;-85
2021/11/22 14:06:50;253132.00;0.84;437.34;7709.00;0.03;13.98;;;;;8.40;11.80;;;;;;2276736;61;1082;-85
2021/11/22 14:09:22;130091.00;0.43;225.49;0.00;0.00;0.62;;;;;8.30;9.90;;;;;;2276825;61;1049;-86
2021/11/22 14:11:51;47536.00;0.16;82.92;0.00;0.00;0.62;;;;;8.00;11.60;;;;;;2276267;61;1007;-85
2021/11/22 14:14:22;108125.00;0.36;187.59;30609.00;0.10;53.64;;;;;7.80;12.90;;;;;;2276680;61;1295;-86
2021/11/22 14:16:52;16906.00;0.06;29.91;0.00;0.00;0.62;;;;;7.90;12.10;;;;;;2276575;61;981;-86
2021/11/22 14:19:19;263048.00;0.88;454.39;0.00;0.00;0.62;;;;;7.70;12.20;;;;;;2272917;61;1162;-86
2021/11/22 14:21:47;287011.00;0.96;495.59;0.00;0.00;0.62;;;;;7.70;12.60;;;;;;2276687;61;1090;-85
2021/11/22 14:24:16;414543.00;1.38;714.81;0.00;0.00;0.62;;;;;7.70;12.50;;;;;;2276518;61;1307;-86
2021/11/22 14:26:46;535967.00;1.79;923.77;30978.00;0.10;54.28;;;;;8.00;11.50;;;;;;2276477;61;1998;-86
2021/11/22 14:29:19;288085.00;0.96;497.44;0.00;0.00;0.62;;;;;8.00;11.20;;;;;;2276621;61;1012;-86
2021/11/22 14:31:51;197138.00;0.66;341.00;0.00;0.00;0.62;;;;;7.90;11.20;;;;;;2269287;61;1011;-86
2021/11/22 14:34:21;283655.00;0.95;489.82;24601.00;0.08;43.24;;;;;7.90;11.20;;;;;;2271662;61;1462;-86
2021/11/22 14:36:50;283815.00;0.95;490.10;0.00;0.00;0.62;;;;;7.70;10.80;;;;;;2272141;61;1093;-87
2021/11/22 14:39:27;304515.00;1.02;525.68;82028.00;0.27;142.54;;;;;7.70;11.70;;;;;;2272289;61;1022;-86
2021/11/22 14:41:54;140396.00;0.47;243.25;0.00;0.00;0.62;;;;;8.00;11.20;;;;;;2271987;61;1082;-86
2021/11/22 14:44:21;131176.00;0.44;227.36;0.00;0.00;0.62;;;;;7.80;11.00;;;;;;2268664;61;1417;-86
2021/11/22 14:46:52;268063.00;0.89;463.01;9973.00;0.03;17.90;;;;;7.60;11.00;;;;;;2272145;61;1936;-87
2021/11/22 14:51:49;201770.00;0.67;348.97;0.00;0.00;0.62;;;;;7.50;11.20;;;;;;2278786;61;1321;-87
2021/11/22 14:54:19;449457.00;1.50;774.85;0.00;0.00;0.62;;;;;7.60;10.40;;;;;;2275457;61;1530;-86
2021/11/22 14:56:48;242337.00;0.81;418.77;0.00;0.00;0.62;;;;;7.70;10.00;;;;;;2265400;61;1017;-86
2021/11/22 14:59:25;114625.00;0.38;198.81;0.00;0.00;0.62;;;;;7.90;10.10;;;;;;2265563;61;1007;-87
2021/11/22 15:01:57;141224.00;0.47;244.68;0.00;0.00;0.62;;;;;8.20;8.90;;;;;;2272493;61;1084;-87
2021/11/22 15:04:26;136820.00;0.46;237.09;0.00;0.00;0.62;;;;;8.20;7.50;;;;;;2272403;61;1373;-87
2021/11/22 15:06:56;373126.00;1.24;643.61;0.00;0.00;0.62;;;;;8.00;9.50;;;;;;2265474;61;1935;-87
2021/11/22 15:09:30;1323218.00;4.41;2314.66;131775.00;0.44;228.39;;;;;7.90;8.60;;;;;;2268737;61;1013;-85
2021/11/22 15:12:00;1389020.00;4.63;2435.98;138550.00;0.46;240.07;;;;;7.70;9.00;;;;;;2265485;61;952;-87
2021/11/22 15:14:40;864934.00;2.88;1494.61;62232.00;0.21;108.34;;;;;7.50;9.10;;;;;;2272565;61;1432;-87
2021/11/22 15:17:10;1786066.00;5.95;3193.90;94134.00;0.31;163.45;;;;;7.40;9.10;;;;;;2263969;61;1014;-87
2021/11/22 15:24:36;1425034.00;4.75;2502.84;145513.00;0.49;252.07;;;;;7.20;8.90;;;;;;2278420;61;1402;-88
2021/11/22 15:32:01;503969.00;1.68;868.66;0.00;0.00;0.62;;;;;7.10;8.90;;;;;;2278281;61;1406;-88
2021/11/22 15:34:31;53930.00;0.18;93.98;0.00;0.00;0.62;;;;;7.60;9.00;;;;;;2276561;61;1427;-91
2021/11/22 15:36:59;17921.00;0.06;31.67;0.00;0.00;0.62;;;;;7.80;7.80;;;;;;2269204;61;1004;-88
2021/11/22 15:39:29;90628.00;0.30;157.39;22952.00;0.08;40.38;;;;;7.70;8.20;;;;;;2269511;61;971;-90
2021/11/22 15:41:58;254526.00;0.85;439.73;0.00;0.00;0.62;;;;;7.90;7.70;;;;;;2276497;61;862;-88
2021/11/22 15:44:26;32473.00;0.11;56.86;0.00;0.00;0.62;;;;;7.90;8.10;;;;;;2276487;61;1426;-90
2021/11/22 18:25:13;56406.00;0.19;98.26;0.00;0.00;0.62;;;;;7.60;1.70;;;;;;2427941;40;3334;31
2021/11/22 18:38:57;20794.00;0.07;36.65;0.00;0.00;0.62;;;;;7.80;1.00;;;;;;2430604;39;3226;31
2021/11/22 19:09:49;174096.00;0.58;301.32;93364.00;0.31;162.12;;;;;7.30;1.70;;;;;;2283182;61;1026;-88